sensor_id;sensor_type;location;lat;lon;timestamp;pressure;altitude;pressure_sealevel;temperature;humidity
17525;BME280;40431;52.198;9.902;2023-04-05T00:01:45;101619.53;;;2.19;85.24
17525;BME280;40431;52.198;9.902;2023-04-05T00:04:14;101623.13;;;2.14;85.26
17525;BME280;40431;52.198;9.902;2023-04-05T00:06:45;101622.28;;;2.09;82.66
17525;BME280;40431;52.198;9.902;2023-04-05T00:09:11;101618.00;;;1.87;82.57
17525;BME280;40431;52.198;9.902;2023-04-05T00:11:37;101625.19;;;1.77;84.21
17525;BME280;40431;52.198;9.902;2023-04-05T00:14:05;101624.34;;;1.70;83.36
17525;BME280;40431;52.198;9.902;2023-04-05T00:16:32;101617.25;;;1.66;83.30
17525;BME280;40431;52.198;9.902;2023-04-05T00:18:58;101622.66;;;1.61;83.28
17525;BME280;40431;52.198;9.902;2023-04-05T00:21:26;101623.53;;;1.62;84.58
17525;BME280;40431;52.198;9.902;2023-04-05T00:23:54;101623.66;;;1.40;84.25
17525;BME280;40431;52.198;9.902;2023-04-05T00:26:23;101632.63;;;1.30;85.18
17525;BME280;40431;52.198;9.902;2023-04-05T00:28:50;101642.50;;;1.15;86.21
17525;BME280;40431;52.198;9.902;2023-04-05T00:31:18;101638.06;;;1.14;87.04
17525;BME280;40431;52.198;9.902;2023-04-05T00:33:44;101637.13;;;1.22;91.08
17525;BME280;40431;52.198;9.902;2023-04-05T00:36:12;101636.25;;;1.18;90.30
17525;BME280;40431;52.198;9.902;2023-04-05T00:38:40;101630.88;;;1.20;89.44
17525;BME280;40431;52.198;9.902;2023-04-05T00:41:07;101630.91;;;1.16;89.58
17525;BME280;40431;52.198;9.902;2023-04-05T00:43:33;101630.91;;;1.16;90.31
17525;BME280;40431;52.198;9.902;2023-04-05T00:46:00;101635.41;;;1.14;92.16
17525;BME280;40431;52.198;9.902;2023-04-05T00:48:28;101639.81;;;1.19;91.55
17525;BME280;40431;52.198;9.902;2023-04-05T00:50:56;101634.41;;;1.31;95.88
17525;BME280;40431;52.198;9.902;2023-04-05T00:53:23;101632.63;;;1.30;94.74
17525;BME280;40431;52.198;9.902;2023-04-05T00:55:50;101629.03;;;1.37;95.83
17525;BME280;40431;52.198;9.902;2023-04-05T00:58:18;101629.91;;;1.38;95.66
17525;BME280;40431;52.198;9.902;2023-04-05T01:00:52;101622.84;;;1.32;95.33
17525;BME280;40431;52.198;9.902;2023-04-05T01:03:20;101627.25;;;1.36;95.89
17525;BME280;40431;52.198;9.902;2023-04-05T01:05:54;101627.28;;;1.35;94.17
17525;BME280;40431;52.198;9.902;2023-04-05T01:08:26;101631.69;;;1.36;94.22
17525;BME280;40431;52.198;9.902;2023-04-05T01:10:56;101634.38;;;1.39;94.22
17525;BME280;40431;52.198;9.902;2023-04-05T01:13:24;101634.34;;;1.40;92.49
17525;BME280;40431;52.198;9.902;2023-04-05T01:15:50;101632.59;;;1.36;92.88
17525;BME280;40431;52.198;9.902;2023-04-05T01:18:19;101631.72;;;1.32;91.78
17525;BME280;40431;52.198;9.902;2023-04-05T01:20:53;101630.81;;;1.35;92.83
17525;BME280;40431;52.198;9.902;2023-04-05T01:23:34;101637.97;;;1.33;90.91
17525;BME280;40431;52.198;9.902;2023-04-05T01:26:26;101627.28;;;1.30;91.02
17525;BME280;40431;52.198;9.902;2023-04-05T01:29:31;101626.41;;;1.25;90.56
17525;BME280;40431;52.198;9.902;2023-04-05T01:32:10;101625.59;;;1.13;91.34
17525;BME280;40431;52.198;9.902;2023-04-05T01:34:45;101619.38;;;1.14;91.65
17525;BME280;40431;52.198;9.902;2023-04-05T01:37:14;101619.38;;;1.14;93.38
17525;BME280;40431;52.198;9.902;2023-04-05T01:39:44;101619.38;;;1.14;92.84
17525;BME280;40431;52.198;9.902;2023-04-05T01:42:12;101614.88;;;1.16;92.25
17525;BME280;40431;52.198;9.902;2023-04-05T01:44:40;101607.81;;;1.09;90.10
17525;BME280;40431;52.198;9.902;2023-04-05T01:47:07;101614.91;;;1.13;91.16
17525;BME280;40431;52.198;9.902;2023-04-05T01:49:33;101613.16;;;1.11;89.06
17525;BME280;40431;52.198;9.902;2023-04-05T01:52:00;101618.50;;;1.09;88.80
17525;BME280;40431;52.198;9.902;2023-04-05T01:54:26;101608.69;;;1.11;91.51
17525;BME280;40431;52.198;9.902;2023-04-05T01:56:53;101611.38;;;1.08;90.41
17525;BME280;40431;52.198;9.902;2023-04-05T01:59:19;101609.56;;;1.09;90.69
17525;BME280;40431;52.198;9.902;2023-04-05T02:01:47;101614.91;;;1.10;90.60
17525;BME280;40431;52.198;9.902;2023-04-05T02:04:13;101607.78;;;1.14;92.82
17525;BME280;40431;52.198;9.902;2023-04-05T02:06:40;101606.03;;;1.08;91.84
17525;BME280;40431;52.198;9.902;2023-04-05T02:09:06;101610.50;;;1.05;91.72
17525;BME280;40431;52.198;9.902;2023-04-05T02:11:32;101609.59;;;1.07;92.30
17525;BME280;40431;52.198;9.902;2023-04-05T02:13:59;101606.06;;;1.05;92.20
17525;BME280;40431;52.198;9.902;2023-04-05T02:16:25;101609.63;;;1.04;90.46
17525;BME280;40431;52.198;9.902;2023-04-05T02:18:54;101613.16;;;1.03;91.29
17525;BME280;40431;52.198;9.902;2023-04-05T02:21:22;101606.06;;;0.99;91.53
17525;BME280;40431;52.198;9.902;2023-04-05T02:23:50;101610.53;;;0.95;91.22
17525;BME280;40431;52.198;9.902;2023-04-05T02:26:16;101606.09;;;0.96;91.26
17525;BME280;40431;52.198;9.902;2023-04-05T02:28:43;101607.00;;;0.90;90.86
17525;BME280;40431;52.198;9.902;2023-04-05T02:31:10;101602.56;;;0.89;90.53
17525;BME280;40431;52.198;9.902;2023-04-05T02:33:36;101606.13;;;0.90;92.25
17525;BME280;40431;52.198;9.902;2023-04-05T02:36:05;101606.13;;;0.87;92.30
17525;BME280;40431;52.198;9.902;2023-04-05T02:38:33;101606.16;;;0.80;92.27
17525;BME280;40431;52.198;9.902;2023-04-05T02:41:00;101597.25;;;0.75;92.08
17525;BME280;40431;52.198;9.902;2023-04-05T02:43:27;101599.94;;;0.75;92.73
17525;BME280;40431;52.198;9.902;2023-04-05T02:45:54;101597.28;;;0.72;93.94
17525;BME280;40431;52.198;9.902;2023-04-05T02:48:20;101599.06;;;0.70;93.04
17525;BME280;40431;52.198;9.902;2023-04-05T02:50:47;101609.78;;;0.64;92.72
17525;BME280;40431;52.198;9.902;2023-04-05T02:53:15;101606.19;;;0.63;92.27
17525;BME280;40431;52.198;9.902;2023-04-05T02:55:42;101597.31;;;0.63;92.40
17525;BME280;40431;52.198;9.902;2023-04-05T02:58:09;101595.50;;;0.65;92.59
17525;BME280;40431;52.198;9.902;2023-04-05T03:00:35;101592.84;;;0.62;93.16
17525;BME280;40431;52.198;9.902;2023-04-05T03:03:02;101606.22;;;0.59;91.14
17525;BME280;40431;52.198;9.902;2023-04-05T03:05:28;101598.22;;;0.54;92.06
17525;BME280;40431;52.198;9.902;2023-04-05T03:07:55;101595.56;;;0.53;91.93
17525;BME280;40431;52.198;9.902;2023-04-05T03:10:24;101590.22;;;0.53;93.15
17525;BME280;40431;52.198;9.902;2023-04-05T03:12:53;101590.22;;;0.53;93.59
17525;BME280;40431;52.198;9.902;2023-04-05T03:15:19;101586.66;;;0.50;94.39
17525;BME280;40431;52.198;9.902;2023-04-05T03:17:46;101589.34;;;0.49;94.64
17525;BME280;40431;52.198;9.902;2023-04-05T03:20:12;101582.25;;;0.40;92.69
17525;BME280;40431;52.198;9.902;2023-04-05T03:22:39;101574.28;;;0.31;92.67
17525;BME280;40431;52.198;9.902;2023-04-05T03:25:06;101574.28;;;0.31;95.88
17525;BME280;40431;52.198;9.902;2023-04-05T03:27:34;101574.25;;;0.28;96.32
17525;BME280;40431;52.198;9.902;2023-04-05T03:30:00;101566.28;;;0.31;98.30
17525;BME280;40431;52.198;9.902;2023-04-05T03:32:27;101564.50;;;0.27;96.09
17525;BME280;40431;52.198;9.902;2023-04-05T03:34:53;101556.50;;;0.24;95.14
17525;BME280;40431;52.198;9.902;2023-04-05T03:37:20;101568.06;;;0.24;95.08
17525;BME280;40431;52.198;9.902;2023-04-05T03:39:46;101566.28;;;0.23;95.52
17525;BME280;40431;52.198;9.902;2023-04-05T03:42:13;101568.94;;;0.25;96.77
17525;BME280;40431;52.198;9.902;2023-04-05T03:44:42;101567.16;;;0.24;96.01
17525;BME280;40431;52.198;9.902;2023-04-05T03:47:08;101573.38;;;0.26;94.44
17525;BME280;40431;52.198;9.902;2023-04-05T03:49:35;101572.50;;;0.27;96.81
17525;BME280;40431;52.198;9.902;2023-04-05T03:52:01;101566.28;;;0.25;96.81
17525;BME280;40431;52.198;9.902;2023-04-05T03:54:28;101571.59;;;0.25;95.75
17525;BME280;40431;52.198;9.902;2023-04-05T03:56:54;101574.28;;;0.22;96.77
17525;BME280;40431;52.198;9.902;2023-04-05T03:59:21;101569.84;;;0.22;96.54
17525;BME280;40431;52.198;9.902;2023-04-05T04:01:49;101576.06;;;0.23;96.88
17525;BME280;40431;52.198;9.902;2023-04-05T04:04:15;101572.53;;;0.18;96.44
17525;BME280;40431;52.198;9.902;2023-04-05T04:06:42;101574.28;;;0.22;98.52
17525;BME280;40431;52.198;9.902;2023-04-05T04:09:08;101571.59;;;0.19;100.00
17525;BME280;40431;52.198;9.902;2023-04-05T04:11:35;101568.09;;;0.15;99.09
17525;BME280;40431;52.198;9.902;2023-04-05T04:14:01;101565.41;;;0.12;99.09
17525;BME280;40431;52.198;9.902;2023-04-05T04:16:28;101577.84;;;0.11;97.79
17525;BME280;40431;52.198;9.902;2023-04-05T04:18:55;101573.41;;;0.07;96.97
17525;BME280;40431;52.198;9.902;2023-04-05T04:21:22;101574.31;;;0.12;98.64
17525;BME280;40431;52.198;9.902;2023-04-05T04:23:49;101576.97;;;0.12;99.21
17525;BME280;40431;52.198;9.902;2023-04-05T04:26:16;101579.63;;;0.06;100.00
17525;BME280;40431;52.198;9.902;2023-04-05T04:28:53;101579.66;;;0.00;100.00
17525;BME280;40431;52.198;9.902;2023-04-05T04:31:19;101579.66;;;0.00;100.00
17525;BME280;40431;52.198;9.902;2023-04-05T04:33:48;101586.75;;;0.07;100.00
17525;BME280;40431;52.198;9.902;2023-04-05T04:36:16;101583.19;;;0.08;100.00
17525;BME280;40431;52.198;9.902;2023-04-05T04:38:51;101585.88;;;0.10;100.00
17525;BME280;40431;52.198;9.902;2023-04-05T04:41:18;101587.63;;;0.09;99.37
17525;BME280;40431;52.198;9.902;2023-04-05T04:43:46;101585.88;;;0.08;100.00
17525;BME280;40431;52.198;9.902;2023-04-05T04:46:13;101581.41;;;0.07;99.56
17525;BME280;40431;52.198;9.902;2023-04-05T04:48:40;101591.19;;;0.13;100.00
17525;BME280;40431;52.198;9.902;2023-04-05T04:51:07;101584.97;;;0.12;99.67
17525;BME280;40431;52.198;9.902;2023-04-05T04:53:35;101590.28;;;0.15;99.60
17525;BME280;40431;52.198;9.902;2023-04-05T04:56:05;101592.06;;;0.16;100.00
17525;BME280;40431;52.198;9.902;2023-04-05T04:58:31;101584.94;;;0.23;100.00
17525;BME280;40431;52.198;9.902;2023-04-05T05:00:58;101588.50;;;0.24;100.00
17525;BME280;40431;52.198;9.902;2023-04-05T05:03:25;101588.50;;;0.24;100.00
17525;BME280;40431;52.198;9.902;2023-04-05T05:05:51;101590.28;;;0.25;100.00
17525;BME280;40431;52.198;9.902;2023-04-05T05:08:18;101596.50;;;0.24;100.00
17525;BME280;40431;52.198;9.902;2023-04-05T05:10:49;101591.16;;;0.25;100.00
17525;BME280;40431;52.198;9.902;2023-04-05T05:13:16;101597.41;;;0.32;100.00
17525;BME280;40431;52.198;9.902;2023-04-05T05:15:42;101594.69;;;0.38;100.00
17525;BME280;40431;52.198;9.902;2023-04-05T05:18:08;101595.59;;;0.40;100.00
17525;BME280;40431;52.198;9.902;2023-04-05T05:20:36;101599.13;;;0.41;100.00
17525;BME280;40431;52.198;9.902;2023-04-05T05:23:02;101601.81;;;0.41;100.00
17525;BME280;40431;52.198;9.902;2023-04-05T05:25:29;101603.59;;;0.49;100.00
17525;BME280;40431;52.198;9.902;2023-04-05T05:27:57;101593.78;;;0.52;100.00
17525;BME280;40431;52.198;9.902;2023-04-05T05:30:24;101592.88;;;0.54;100.00
17525;BME280;40431;52.198;9.902;2023-04-05T05:32:51;101595.56;;;0.59;100.00
17525;BME280;40431;52.198;9.902;2023-04-05T05:35:17;101593.78;;;0.56;100.00
17525;BME280;40431;52.198;9.902;2023-04-05T05:37:44;101585.78;;;0.52;100.00
17525;BME280;40431;52.198;9.902;2023-04-05T05:40:11;101592.00;;;0.54;100.00
17525;BME280;40431;52.198;9.902;2023-04-05T05:42:37;101593.78;;;0.55;100.00
17525;BME280;40431;52.198;9.902;2023-04-05T05:45:06;101586.63;;;0.66;100.00
17525;BME280;40431;52.198;9.902;2023-04-05T05:47:33;101585.72;;;0.73;100.00
17525;BME280;40431;52.198;9.902;2023-04-05T05:49:59;101577.72;;;0.73;100.00
17525;BME280;40431;52.198;9.902;2023-04-05T05:52:26;101581.28;;;0.71;100.00
17525;BME280;40431;52.198;9.902;2023-04-05T05:54:52;101584.81;;;0.71;100.00
17525;BME280;40431;52.198;9.902;2023-04-05T05:57:19;101581.25;;;0.69;98.72
17525;BME280;40431;52.198;9.902;2023-04-05T05:59:45;101577.75;;;0.64;98.11
17525;BME280;40431;52.198;9.902;2023-04-05T06:02:13;101575.06;;;0.59;98.43
17525;BME280;40431;52.198;9.902;2023-04-05T06:04:40;101579.50;;;0.63;100.00
17525;BME280;40431;52.198;9.902;2023-04-05T06:07:07;101583.03;;;0.76;100.00
17525;BME280;40431;52.198;9.902;2023-04-05T06:09:33;101585.66;;;0.87;100.00
17525;BME280;40431;52.198;9.902;2023-04-05T06:12:03;101584.72;;;0.93;100.00
17525;BME280;40431;52.198;9.902;2023-04-05T06:14:29;101581.16;;;1.00;100.00
17525;BME280;40431;52.198;9.902;2023-04-05T06:16:56;101579.34;;;1.00;100.00
17525;BME280;40431;52.198;9.902;2023-04-05T06:19:24;101579.38;;;0.99;100.00
17525;BME280;40431;52.198;9.902;2023-04-05T06:21:50;101578.44;;;1.05;100.00
17525;BME280;40431;52.198;9.902;2023-04-05T06:24:16;101581.97;;;1.10;100.00
17525;BME280;40431;52.198;9.902;2023-04-05T06:26:43;101581.06;;;1.19;100.00
17525;BME280;40431;52.198;9.902;2023-04-05T06:29:09;101581.00;;;1.25;100.00
17525;BME280;40431;52.198;9.902;2023-04-05T06:31:36;101587.19;;;1.31;100.00
17525;BME280;40431;52.198;9.902;2023-04-05T06:34:02;101584.47;;;1.39;100.00
17525;BME280;40431;52.198;9.902;2023-04-05T06:36:30;101579.97;;;1.47;100.00
17525;BME280;40431;52.198;9.902;2023-04-05T06:38:58;101581.69;;;1.52;100.00
17525;BME280;40431;52.198;9.902;2023-04-05T06:41:24;101579.03;;;1.55;100.00
17525;BME280;40431;52.198;9.902;2023-04-05T06:43:51;101575.47;;;1.56;100.00
17525;BME280;40431;52.198;9.902;2023-04-05T06:46:18;101578.13;;;1.56;100.00
17525;BME280;40431;52.198;9.902;2023-04-05T06:48:44;101568.38;;;1.48;98.96
17525;BME280;40431;52.198;9.902;2023-04-05T06:51:12;101570.19;;;1.46;98.38
17525;BME280;40431;52.198;9.902;2023-04-05T06:53:40;101572.84;;;1.48;96.41
17525;BME280;40431;52.198;9.902;2023-04-05T06:56:07;101568.38;;;1.48;97.46
17525;BME280;40431;52.198;9.902;2023-04-05T06:58:33;101575.44;;;1.59;98.04
17525;BME280;40431;52.198;9.902;2023-04-05T07:01:00;101575.38;;;1.68;99.32
17525;BME280;40431;52.198;9.902;2023-04-05T07:03:27;101586.84;;;1.81;100.00
17525;BME280;40431;52.198;9.902;2023-04-05T07:05:56;101576.09;;;1.87;100.00
17525;BME280;40431;52.198;9.902;2023-04-05T07:08:23;101575.16;;;1.94;100.00
17525;BME280;40431;52.198;9.902;2023-04-05T07:10:52;101578.75;;;1.89;99.50
17525;BME280;40431;52.198;9.902;2023-04-05T07:13:21;101582.34;;;1.88;99.42
17525;BME280;40431;52.198;9.902;2023-04-05T07:15:47;101580.56;;;1.87;98.27
17525;BME280;40431;52.198;9.902;2023-04-05T07:18:14;101573.44;;;1.86;97.46
17525;BME280;40431;52.198;9.902;2023-04-05T07:20:40;101570.78;;;1.82;98.30
17525;BME280;40431;52.198;9.902;2023-04-05T07:23:07;101565.38;;;1.90;98.08
17525;BME280;40431;52.198;9.902;2023-04-05T07:25:33;101561.78;;;1.91;97.07
17525;BME280;40431;52.198;9.902;2023-04-05T07:28:01;101568.81;;;2.06;98.03
17525;BME280;40431;52.198;9.902;2023-04-05T07:30:29;101557.09;;;2.16;96.86
17525;BME280;40431;52.198;9.902;2023-04-05T07:32:55;101564.13;;;2.27;94.74
17525;BME280;40431;52.198;9.902;2023-04-05T07:35:22;101563.16;;;2.32;95.23
17525;BME280;40431;52.198;9.902;2023-04-05T07:37:49;101555.97;;;2.38;95.06
17525;BME280;40431;52.198;9.902;2023-04-05T07:40:16;101556.78;;;2.47;95.38
17525;BME280;40431;52.198;9.902;2023-04-05T07:42:43;101553.06;;;2.58;96.24
17525;BME280;40431;52.198;9.902;2023-04-05T07:45:11;101553.78;;;2.72;95.70
17525;BME280;40431;52.198;9.902;2023-04-05T07:47:37;101551.09;;;2.74;94.44
17525;BME280;40431;52.198;9.902;2023-04-05T07:50:04;101549.31;;;2.74;95.23
17525;BME280;40431;52.198;9.902;2023-04-05T07:52:33;101554.56;;;2.80;95.29
17525;BME280;40431;52.198;9.902;2023-04-05T07:55:00;101550.03;;;2.89;95.74
17525;BME280;40431;52.198;9.902;2023-04-05T07:57:26;101552.59;;;2.98;94.22
17525;BME280;40431;52.198;9.902;2023-04-05T07:59:53;101547.22;;;2.96;92.52
17525;BME280;40431;52.198;9.902;2023-04-05T08:02:22;101565.06;;;2.99;93.51
17525;BME280;40431;52.198;9.902;2023-04-05T08:04:48;101550.81;;;2.94;90.22
17525;BME280;40431;52.198;9.902;2023-04-05T08:07:15;101567.72;;;2.99;90.11
17525;BME280;40431;52.198;9.902;2023-04-05T08:09:41;101554.34;;;2.99;90.74
17525;BME280;40431;52.198;9.902;2023-04-05T08:12:08;101553.28;;;3.11;90.05
17525;BME280;40431;52.198;9.902;2023-04-05T08:14:35;101555.00;;;3.16;89.52
17525;BME280;40431;52.198;9.902;2023-04-05T08:17:02;101561.03;;;3.31;91.21
17525;BME280;40431;52.198;9.902;2023-04-05T08:19:30;101567.94;;;3.47;90.65
17525;BME280;40431;52.198;9.902;2023-04-05T08:21:56;101555.38;;;3.53;89.80
17525;BME280;40431;52.198;9.902;2023-04-05T08:24:23;101551.59;;;3.63;90.66
17525;BME280;40431;52.198;9.902;2023-04-05T08:26:49;101549.72;;;3.71;88.14
17525;BME280;40431;52.198;9.902;2023-04-05T08:29:15;101553.06;;;3.82;85.25
17525;BME280;40431;52.198;9.902;2023-04-05T08:31:42;101547.63;;;3.89;82.25
17525;BME280;40431;52.198;9.902;2023-04-05T08:34:08;101543.97;;;3.93;81.96
17525;BME280;40431;52.198;9.902;2023-04-05T08:36:36;101550.06;;;4.01;83.39
17525;BME280;40431;52.198;9.902;2023-04-05T08:39:02;101547.16;;;4.13;83.37
17525;BME280;40431;52.198;9.902;2023-04-05T08:41:34;101548.66;;;4.30;79.20
17525;BME280;40431;52.198;9.902;2023-04-05T08:44:02;101533.22;;;4.43;76.11
17525;BME280;40431;52.198;9.902;2023-04-05T08:46:30;101535.50;;;4.61;75.18
17525;BME280;40431;52.198;9.902;2023-04-05T08:48:58;101528.81;;;4.81;76.81
17525;BME280;40431;52.198;9.902;2023-04-05T08:51:26;101529.38;;;4.97;74.98
17525;BME280;40431;52.198;9.902;2023-04-05T08:53:54;101535.25;;;5.14;71.42
17525;BME280;40431;52.198;9.902;2023-04-05T08:56:24;101522.44;;;5.26;67.20
17525;BME280;40431;52.198;9.902;2023-04-05T08:58:55;101519.41;;;5.41;68.48
17525;BME280;40431;52.198;9.902;2023-04-05T09:01:24;101517.31;;;5.52;62.92
17525;BME280;40431;52.198;9.902;2023-04-05T09:03:55;101511.63;;;5.65;65.85
17525;BME280;40431;52.198;9.902;2023-04-05T09:06:22;101514.13;;;5.73;63.08
17525;BME280;40431;52.198;9.902;2023-04-05T09:08:51;101512.06;;;5.84;59.49
17525;BME280;40431;52.198;9.902;2023-04-05T09:11:19;101511.72;;;5.96;59.97
17525;BME280;40431;52.198;9.902;2023-04-05T09:13:46;101509.50;;;6.14;62.02
17525;BME280;40431;52.198;9.902;2023-04-05T09:16:13;101505.78;;;6.18;56.26
17525;BME280;40431;52.198;9.902;2023-04-05T09:18:40;101496.00;;;6.15;56.21
17525;BME280;40431;52.198;9.902;2023-04-05T09:21:06;101503.78;;;6.26;57.19
17525;BME280;40431;52.198;9.902;2023-04-05T09:23:34;101508.03;;;6.35;56.48
17525;BME280;40431;52.198;9.902;2023-04-05T09:26:16;101503.88;;;6.55;55.53
17525;BME280;40431;52.198;9.902;2023-04-05T09:28:44;101504.41;;;6.67;52.89
17525;BME280;40431;52.198;9.902;2023-04-05T09:31:28;101501.94;;;6.60;50.89
17525;BME280;40431;52.198;9.902;2023-04-05T09:33:56;101492.19;;;6.56;52.05
17525;BME280;40431;52.198;9.902;2023-04-05T09:36:23;101495.03;;;6.49;51.22
17525;BME280;40431;52.198;9.902;2023-04-05T09:38:49;101495.91;;;6.50;50.60
17525;BME280;40431;52.198;9.902;2023-04-05T09:41:16;101494.13;;;6.50;49.03
17525;BME280;40431;52.198;9.902;2023-04-05T09:43:44;101495.41;;;6.37;47.55
17525;BME280;40431;52.198;9.902;2023-04-05T09:46:28;101493.53;;;6.39;50.38
17525;BME280;40431;52.198;9.902;2023-04-05T09:48:56;101491.75;;;6.38;49.60
17525;BME280;40431;52.198;9.902;2023-04-05T09:51:22;101483.66;;;6.40;49.19
17525;BME280;40431;52.198;9.902;2023-04-05T09:53:58;101488.94;;;6.43;45.76
17525;BME280;40431;52.198;9.902;2023-04-05T09:56:27;101488.16;;;6.39;45.88
17525;BME280;40431;52.198;9.902;2023-04-05T09:58:59;101482.75;;;6.39;47.27
17525;BME280;40431;52.198;9.902;2023-04-05T10:01:27;101477.25;;;6.44;48.47
17525;BME280;40431;52.198;9.902;2023-04-05T10:03:55;101477.06;;;6.50;48.42
17525;BME280;40431;52.198;9.902;2023-04-05T10:06:22;101482.16;;;6.61;48.06
17525;BME280;40431;52.198;9.902;2023-04-05T10:08:49;101467.13;;;6.52;47.43
17525;BME280;40431;52.198;9.902;2023-04-05T10:11:17;101469.59;;;6.60;49.07
17525;BME280;40431;52.198;9.902;2023-04-05T10:13:44;101468.19;;;6.76;49.74
17525;BME280;40431;52.198;9.902;2023-04-05T10:16:18;101468.84;;;6.84;47.95
17525;BME280;40431;52.198;9.902;2023-04-05T10:18:49;101466.72;;;6.96;48.76
17525;BME280;40431;52.198;9.902;2023-04-05T10:21:20;101455.63;;;7.05;48.09
17525;BME280;40431;52.198;9.902;2023-04-05T10:23:53;101449.88;;;7.16;48.06
17525;BME280;40431;52.198;9.902;2023-04-05T10:26:24;101446.69;;;7.03;45.57
17525;BME280;40431;52.198;9.902;2023-04-05T10:29:00;101444.97;;;7.00;45.47
17525;BME280;40431;52.198;9.902;2023-04-05T10:31:35;101442.91;;;6.80;44.79
17525;BME280;40431;52.198;9.902;2023-04-05T10:34:13;101443.06;;;6.76;45.60
17525;BME280;40431;52.198;9.902;2023-04-05T10:36:44;101442.72;;;6.87;45.76
17525;BME280;40431;52.198;9.902;2023-04-05T10:39:18;101432.81;;;6.87;46.09
17525;BME280;40431;52.198;9.902;2023-04-05T10:41:48;101429.53;;;6.77;46.24
17525;BME280;40431;52.198;9.902;2023-04-05T10:44:18;101423.13;;;6.81;46.37
17525;BME280;40431;52.198;9.902;2023-04-05T10:46:46;101423.16;;;6.80;45.70
17525;BME280;40431;52.198;9.902;2023-04-05T10:49:21;101421.78;;;6.95;45.74
17525;BME280;40431;52.198;9.902;2023-04-05T10:51:47;101422.88;;;6.89;44.70
17525;BME280;40431;52.198;9.902;2023-04-05T10:54:16;101423.47;;;6.99;45.94
17525;BME280;40431;52.198;9.902;2023-04-05T10:56:44;101409.91;;;7.00;44.74
17525;BME280;40431;52.198;9.902;2023-04-05T10:59:11;101410.13;;;6.94;44.14
17525;BME280;40431;52.198;9.902;2023-04-05T11:01:39;101403.53;;;7.03;45.67
17525;BME280;40431;52.198;9.902;2023-04-05T11:04:12;101403.34;;;7.09;46.96
17525;BME280;40431;52.198;9.902;2023-04-05T11:06:39;101403.16;;;7.15;45.78
17525;BME280;40431;52.198;9.902;2023-04-05T11:09:11;101403.56;;;7.30;45.82
17525;BME280;40431;52.198;9.902;2023-04-05T11:11:40;101402.22;;;7.43;47.57
17525;BME280;40431;52.198;9.902;2023-04-05T11:14:17;101397.22;;;7.58;47.19
17525;BME280;40431;52.198;9.902;2023-04-05T11:16:45;101399.38;;;7.73;49.11
17525;BME280;40431;52.198;9.902;2023-04-05T11:19:15;101403.34;;;7.88;47.49
17525;BME280;40431;52.198;9.902;2023-04-05T11:21:42;101398.50;;;7.98;46.27
17525;BME280;40431;52.198;9.902;2023-04-05T11:24:09;101386.47;;;7.81;44.15
17525;BME280;40431;52.198;9.902;2023-04-05T11:26:55;101385.28;;;7.65;44.96
17525;BME280;40431;52.198;9.902;2023-04-05T11:29:46;101390.44;;;7.71;46.78
17525;BME280;40431;52.198;9.902;2023-04-05T11:32:15;101382.19;;;7.76;47.31
17525;BME280;40431;52.198;9.902;2023-04-05T11:34:44;101385.81;;;7.75;44.54
17525;BME280;40431;52.198;9.902;2023-04-05T11:37:22;101373.09;;;7.78;45.47
17525;BME280;40431;52.198;9.902;2023-04-05T11:40:24;101382.63;;;7.89;44.54
17525;BME280;40431;52.198;9.902;2023-04-05T11:42:58;101371.50;;;7.98;43.80
17525;BME280;40431;52.198;9.902;2023-04-05T11:45:25;101369.72;;;7.97;45.02
17525;BME280;40431;52.198;9.902;2023-04-05T11:47:52;101368.59;;;8.02;43.87
17525;BME280;40431;52.198;9.902;2023-04-05T11:50:20;101364.44;;;8.17;44.96
17525;BME280;40431;52.198;9.902;2023-04-05T11:53:06;101361.38;;;8.27;44.87
17525;BME280;40431;52.198;9.902;2023-04-05T11:55:34;101357.25;;;8.40;46.45
17525;BME280;40431;52.198;9.902;2023-04-05T11:58:00;101351.75;;;8.43;43.07
17525;BME280;40431;52.198;9.902;2023-04-05T12:00:27;101351.75;;;8.43;43.74
17525;BME280;40431;52.198;9.902;2023-04-05T12:02:54;101340.72;;;8.49;45.25
17525;BME280;40431;52.198;9.902;2023-04-05T12:05:22;101338.47;;;8.61;44.03
17525;BME280;40431;52.198;9.902;2023-04-05T12:07:51;101343.75;;;8.64;44.12
17525;BME280;40431;52.198;9.902;2023-04-05T12:10:18;101344.53;;;8.67;45.60
17525;BME280;40431;52.198;9.902;2023-04-05T12:12:45;101346.91;;;8.75;44.91
17525;BME280;40431;52.198;9.902;2023-04-05T12:15:13;101334.09;;;8.80;44.34
17525;BME280;40431;52.198;9.902;2023-04-05T12:17:44;101340.91;;;8.89;43.67
17525;BME280;40431;52.198;9.902;2023-04-05T12:20:13;101336.28;;;8.93;43.98
17525;BME280;40431;52.198;9.902;2023-04-05T12:22:42;101342.25;;;9.01;43.65
17525;BME280;40431;52.198;9.902;2023-04-05T12:25:09;101330.78;;;8.94;41.75
17525;BME280;40431;52.198;9.902;2023-04-05T12:27:37;101323.28;;;8.80;41.69
17525;BME280;40431;52.198;9.902;2023-04-05T12:30:13;101318.09;;;8.74;42.62
17525;BME280;40431;52.198;9.902;2023-04-05T12:32:42;101321.38;;;8.82;43.02
17525;BME280;40431;52.198;9.902;2023-04-05T12:35:10;101316.34;;;8.73;42.84
17525;BME280;40431;52.198;9.902;2023-04-05T12:37:37;101310.06;;;8.73;43.70
17525;BME280;40431;52.198;9.902;2023-04-05T12:40:06;101305.91;;;8.64;43.57
17525;BME280;40431;52.198;9.902;2023-04-05T12:42:34;101307.47;;;8.47;44.68
17525;BME280;40431;52.198;9.902;2023-04-05T12:45:02;101305.41;;;8.54;45.57
17525;BME280;40431;52.198;9.902;2023-04-05T12:47:28;101298.69;;;8.64;45.94
17525;BME280;40431;52.198;9.902;2023-04-05T12:49:55;101303.34;;;8.61;43.69
17525;BME280;40431;52.198;9.902;2023-04-05T12:52:21;101298.06;;;8.58;44.75
17525;BME280;40431;52.198;9.902;2023-04-05T12:54:52;101294.66;;;8.52;43.74
17525;BME280;40431;52.198;9.902;2023-04-05T12:57:28;101295.59;;;8.51;43.59
17525;BME280;40431;52.198;9.902;2023-04-05T12:59:55;101291.97;;;8.29;43.04
17525;BME280;40431;52.198;9.902;2023-04-05T13:02:21;101287.84;;;8.18;42.91
17525;BME280;40431;52.198;9.902;2023-04-05T13:04:48;101289.56;;;7.97;43.66